Urb Las Lomas, Puerto Rico
Current Conditions -  °F | °C
As of 5:56 AM on Tuesday 27 Jan 2015 (Local Time) from TJSJ Reporting Station
Few Clouds Few Clouds  
Wind Chill: 76°   Ceiling: Unl
Heat Index: 76°   Visibility: 10mi
Dew Point: 72°   Wind: 5mph
Humidity: 87%   Direction: 140°SE
Pressure: 29.97"   Gusts: NA
Location:  18.3905°N, 66.0903°W
Report Text: TJSJ 270956Z 14004KT 10SM FEW060 24/22 A2997 RMK AO2 SLP146 T02440222
Loading
Personal Weather Stations






























Interactive Weather Map New forecast layout! Learn more

10-Day Weather Forecast

Advertisements
Track Severe Weather on mobile